createdAt,value
2023-02-02T00:01:33.515Z,78.47
2023-02-02T00:04:03.324Z,78.41
2023-02-02T00:06:33.644Z,78.45
2023-02-02T00:09:03.624Z,78.46
2023-02-02T00:11:32.678Z,78.45
2023-02-02T00:14:01.905Z,78.51
2023-02-02T00:16:44.517Z,78.51
2023-02-02T00:19:15.804Z,78.46
2023-02-02T00:21:45.585Z,78.49
2023-02-02T00:24:17.865Z,78.44
2023-02-02T00:26:48.153Z,78.37
2023-02-02T00:29:19.429Z,78.57
2023-02-02T00:31:50.619Z,78.57
2023-02-02T00:34:20.298Z,78.67
2023-02-02T00:36:50.221Z,78.55
2023-02-02T00:39:21.244Z,78.65
2023-02-02T00:41:50.041Z,78.57
2023-02-02T00:44:37.463Z,78.64
2023-02-02T00:47:06.380Z,78.67
2023-02-02T00:49:35.500Z,78.65
2023-02-02T00:52:04.752Z,78.66
2023-02-02T00:54:34.326Z,78.46
2023-02-02T00:57:05.185Z,78.51
2023-02-02T00:59:34.542Z,78.65
2023-02-02T01:02:03.798Z,78.64
2023-02-02T01:04:35.314Z,78.61
2023-02-02T01:07:04.191Z,78.58
2023-02-02T01:09:33.942Z,78.55
2023-02-02T01:12:02.808Z,78.59
2023-02-02T01:14:31.769Z,78.62
2023-02-02T01:17:01.758Z,78.50
2023-02-02T01:19:31.257Z,78.53
2023-02-02T01:22:02.710Z,78.65
2023-02-02T01:24:33.145Z,78.57
2023-02-02T01:27:02.851Z,78.52
2023-02-02T01:29:33.514Z,78.62
2023-02-02T01:32:02.488Z,78.59
2023-02-02T01:34:31.344Z,78.58
2023-02-02T01:37:00.658Z,78.70
2023-02-02T01:39:30.644Z,78.66
2023-02-02T01:41:59.569Z,78.71
2023-02-02T01:45:11.992Z,78.63
2023-02-02T01:47:46.070Z,78.61
2023-02-02T01:50:17.543Z,78.73
2023-02-02T01:52:49.843Z,78.66
2023-02-02T01:55:21.815Z,78.72
2023-02-02T01:57:54.784Z,78.70
2023-02-02T02:00:27.861Z,78.72
2023-02-02T02:03:00.541Z,78.79
2023-02-02T02:05:34.377Z,78.63
2023-02-02T02:08:10.273Z,78.80
2023-02-02T02:10:39.445Z,78.69
2023-02-02T02:13:08.785Z,78.65
2023-02-02T02:16:03.177Z,78.63
2023-02-02T02:18:40.997Z,78.73
2023-02-02T02:21:50.384Z,78.79
2023-02-02T02:25:29.104Z,78.69
2023-02-02T02:28:25.993Z,78.82
2023-02-02T02:31:29.837Z,78.71
2023-02-02T02:34:06.488Z,78.71
2023-02-02T02:36:45.043Z,78.71
2023-02-02T02:39:20.258Z,78.68
2023-02-02T02:41:53.943Z,78.69
2023-02-02T02:44:24.281Z,78.75
2023-02-02T02:46:54.140Z,78.73
2023-02-02T02:49:23.024Z,78.79
2023-02-02T02:51:53.851Z,78.86
2023-02-02T02:54:38.366Z,78.87
2023-02-02T02:57:32.841Z,78.95
2023-02-02T03:00:11.709Z,78.89
2023-02-02T03:02:49.822Z,78.93
2023-02-02T03:05:32.678Z,78.93
2023-02-02T03:08:10.592Z,78.92
2023-02-02T03:10:42.684Z,79.00
2023-02-02T03:13:14.150Z,79.09
2023-02-02T03:15:43.845Z,79.10
2023-02-02T03:18:14.613Z,78.99
2023-02-02T03:20:45.129Z,79.06
2023-02-02T03:23:16.857Z,79.23
2023-02-02T03:25:46.464Z,79.11
2023-02-02T03:28:17.049Z,78.98
2023-02-02T03:30:47.952Z,79.09
2023-02-02T03:33:18.063Z,79.05
2023-02-02T03:35:48.312Z,79.13
2023-02-02T03:38:17.093Z,79.07
2023-02-02T03:40:46.339Z,79.12
2023-02-02T03:43:20.993Z,78.99
2023-02-02T03:45:56.482Z,79.13
2023-02-02T03:48:26.434Z,79.21
2023-02-02T03:50:58.788Z,79.21
2023-02-02T03:53:28.957Z,79.18
2023-02-02T03:55:57.663Z,79.13
2023-02-02T03:58:30.232Z,79.11
2023-02-02T04:01:04.341Z,79.06
2023-02-02T04:03:34.258Z,79.15
2023-02-02T04:06:04.672Z,79.09
2023-02-02T04:08:34.126Z,79.09
2023-02-02T04:11:03.984Z,79.22
2023-02-02T04:13:33.255Z,79.16
2023-02-02T04:16:07.578Z,79.32
2023-02-02T04:18:37.938Z,79.38
2023-02-02T04:21:09.589Z,79.34
2023-02-02T04:23:39.155Z,79.34
2023-02-02T04:26:08.007Z,79.26
2023-02-02T04:28:37.158Z,79.37
2023-02-02T04:31:07.919Z,79.22
2023-02-02T04:33:37.176Z,79.16
2023-02-02T04:36:10.439Z,79.16
2023-02-02T04:38:39.510Z,79.14
2023-02-02T04:41:10.692Z,79.11
2023-02-02T04:43:39.642Z,79.15
2023-02-02T04:46:08.922Z,79.21
2023-02-02T04:48:40.458Z,79.23
2023-02-02T04:51:12.900Z,79.37
2023-02-02T04:53:42.230Z,79.25
2023-02-02T04:56:13.832Z,79.35
2023-02-02T04:58:44.188Z,79.36
2023-02-02T05:01:16.954Z,79.33
2023-02-02T05:03:47.127Z,79.37
2023-02-02T05:06:18.699Z,79.22
2023-02-02T05:08:48.432Z,79.27
2023-02-02T05:11:19.932Z,79.23
2023-02-02T05:13:51.200Z,79.19
2023-02-02T05:16:24.076Z,79.34
2023-02-02T05:18:56.078Z,79.40
2023-02-02T05:21:26.105Z,79.33
2023-02-02T05:23:55.875Z,79.22
2023-02-02T05:26:28.563Z,79.32
2023-02-02T05:28:57.589Z,79.34
2023-02-02T05:31:28.378Z,79.34
2023-02-02T05:33:57.435Z,79.30
2023-02-02T05:36:26.449Z,79.35
2023-02-02T05:38:56.825Z,79.40
2023-02-02T05:41:30.888Z,79.26
2023-02-02T05:44:01.409Z,79.29
2023-02-02T05:46:31.787Z,79.31
2023-02-02T05:49:04.317Z,79.38
2023-02-02T05:51:38.790Z,79.41
2023-02-02T05:54:10.131Z,79.44
2023-02-02T05:56:41.584Z,79.46
2023-02-02T05:59:10.272Z,79.31
2023-02-02T06:01:42.053Z,79.38
2023-02-02T06:04:10.975Z,79.37
2023-02-02T06:06:40.070Z,79.45
2023-02-02T06:09:11.629Z,79.41
2023-02-02T06:11:40.366Z,79.34
2023-02-02T06:14:09.157Z,79.45
2023-02-02T06:16:47.083Z,79.30
2023-02-02T06:19:15.836Z,79.41
2023-02-02T06:21:44.647Z,79.44
2023-02-02T06:24:15.883Z,79.52
2023-02-02T06:26:44.668Z,79.44
2023-02-02T06:29:14.317Z,79.44
2023-02-02T06:31:43.408Z,79.44
2023-02-02T06:34:14.121Z,79.38
2023-02-02T06:36:42.863Z,79.50
2023-02-02T06:39:12.204Z,79.42
2023-02-02T06:41:44.180Z,79.39
2023-02-02T06:44:14.840Z,79.43
2023-02-02T06:46:43.814Z,79.35
2023-02-02T06:49:12.671Z,79.28
2023-02-02T06:51:41.399Z,79.37
2023-02-02T06:54:10.177Z,79.46
2023-02-02T06:56:39.392Z,79.43
2023-02-02T06:59:08.555Z,79.35
2023-02-02T07:01:40.364Z,79.37
2023-02-02T07:04:10.658Z,79.27
2023-02-02T07:06:42.712Z,79.35
2023-02-02T07:09:11.410Z,79.45
2023-02-02T07:11:43.179Z,79.42
2023-02-02T07:14:13.202Z,79.44
2023-02-02T07:16:43.513Z,79.42
2023-02-02T07:19:12.781Z,79.33
2023-02-02T07:21:41.294Z,79.46
2023-02-02T07:24:10.394Z,79.44
2023-02-02T07:26:39.742Z,79.41
2023-02-02T07:29:11.749Z,79.35
2023-02-02T07:31:42.007Z,79.25
2023-02-02T07:34:10.778Z,79.28
2023-02-02T07:36:39.442Z,79.27
2023-02-02T07:39:08.300Z,79.24
2023-02-02T07:41:40.386Z,79.25
2023-02-02T07:44:16.653Z,79.34
2023-02-02T07:46:47.179Z,79.22
2023-02-02T07:49:17.441Z,79.32
2023-02-02T07:51:48.645Z,79.20
2023-02-02T07:54:17.644Z,79.34
2023-02-02T07:56:48.408Z,79.42
2023-02-02T07:59:17.274Z,79.33
2023-02-02T08:01:46.013Z,79.38
2023-02-02T08:04:15.581Z,79.22
2023-02-02T08:06:48.016Z,79.28
2023-02-02T08:09:16.694Z,79.32
2023-02-02T08:11:47.945Z,79.37
2023-02-02T08:14:17.007Z,79.28
2023-02-02T08:16:45.693Z,79.17
2023-02-02T08:19:14.506Z,79.23
2023-02-02T08:21:43.329Z,79.18
2023-02-02T08:24:11.929Z,79.15
2023-02-02T08:26:40.941Z,79.25
2023-02-02T08:29:10.861Z,79.26
2023-02-02T08:31:42.875Z,79.30
2023-02-02T08:34:13.444Z,79.21
2023-02-02T08:36:42.209Z,79.24
2023-02-02T08:39:13.802Z,79.35
2023-02-02T08:41:44.817Z,79.38
2023-02-02T08:44:15.938Z,79.27
2023-02-02T08:46:44.667Z,79.41
2023-02-02T08:49:13.775Z,79.50
2023-02-02T08:51:43.042Z,79.48
2023-02-02T08:54:14.207Z,79.44
2023-02-02T08:56:42.993Z,79.47
2023-02-02T08:59:11.744Z,79.40
2023-02-02T09:01:43.202Z,79.54
2023-02-02T09:04:16.036Z,79.48
2023-02-02T09:06:45.620Z,79.46
2023-02-02T09:09:16.771Z,79.50
2023-02-02T09:11:45.633Z,79.64
2023-02-02T09:14:15.264Z,79.88
2023-02-02T09:16:45.182Z,79.69
2023-02-02T09:19:13.874Z,79.77
2023-02-02T09:21:42.714Z,79.70
2023-02-02T09:24:13.868Z,79.58
2023-02-02T09:26:45.865Z,79.50
2023-02-02T09:29:17.608Z,79.59
2023-02-02T09:31:47.039Z,79.38
2023-02-02T09:34:16.493Z,79.45
2023-02-02T09:36:45.921Z,79.58
2023-02-02T09:39:16.042Z,79.57
2023-02-02T09:42:19.325Z,79.53
2023-02-02T09:44:59.732Z,79.46
2023-02-02T09:47:52.893Z,79.44
2023-02-02T09:50:39.150Z,79.30
2023-02-02T09:53:17.861Z,79.41
2023-02-02T09:55:50.097Z,79.34
2023-02-02T09:58:22.557Z,79.29
2023-02-02T10:00:59.085Z,79.30
2023-02-02T10:03:36.589Z,79.13
2023-02-02T10:06:21.458Z,79.15
2023-02-02T10:08:59.837Z,79.15
2023-02-02T10:11:39.013Z,79.14
2023-02-02T10:14:18.483Z,79.09
2023-02-02T10:16:53.593Z,79.21
2023-02-02T10:19:28.714Z,79.05
2023-02-02T10:22:06.195Z,79.09
2023-02-02T10:24:36.841Z,78.96
2023-02-02T10:27:10.130Z,79.07
2023-02-02T10:29:52.935Z,79.08
2023-02-02T10:32:26.235Z,79.17
2023-02-02T10:35:14.132Z,79.33
2023-02-02T10:37:56.063Z,79.26
2023-02-02T10:40:41.430Z,79.40
2023-02-02T10:43:46.743Z,79.32
2023-02-02T10:46:20.443Z,79.31
2023-02-02T10:48:56.708Z,79.17
2023-02-02T10:51:31.131Z,79.20
2023-02-02T10:54:04.674Z,79.19
2023-02-02T10:56:41.458Z,79.17
2023-02-02T10:59:19.843Z,79.29
2023-02-02T11:01:49.680Z,79.22
2023-02-02T11:04:40.414Z,79.21
2023-02-02T11:07:20.144Z,79.22
2023-02-02T11:09:49.628Z,79.10
2023-02-02T11:12:25.995Z,79.14
2023-02-02T11:15:04.636Z,79.22
2023-02-02T11:17:34.733Z,79.13
2023-02-02T11:20:23.917Z,79.13
2023-02-02T11:23:02.057Z,79.22
2023-02-02T11:25:34.865Z,79.18
2023-02-02T11:28:18.774Z,79.08
2023-02-02T11:30:51.890Z,79.20
2023-02-02T11:33:29.052Z,79.34
2023-02-02T11:36:00.653Z,79.45
2023-02-02T11:38:31.637Z,79.30
2023-02-02T11:41:06.436Z,79.36
2023-02-02T11:43:41.018Z,79.42
2023-02-02T11:46:24.083Z,79.43
2023-02-02T11:49:01.178Z,79.41
2023-02-02T11:51:32.557Z,79.51
2023-02-02T11:54:07.388Z,79.56
2023-02-02T11:56:41.233Z,79.51
2023-02-02T11:59:29.503Z,79.47
2023-02-02T12:02:28.488Z,79.43
2023-02-02T12:05:14.625Z,79.45
2023-02-02T12:07:45.077Z,79.62
2023-02-02T12:10:26.241Z,79.63
2023-02-02T12:13:05.789Z,79.55
2023-02-02T12:15:47.987Z,79.50
2023-02-02T12:18:31.408Z,79.38
2023-02-02T12:21:06.845Z,79.53
2023-02-02T12:23:57.233Z,79.43
2023-02-02T12:26:31.576Z,79.51
2023-02-02T12:29:23.729Z,79.43
2023-02-02T12:32:06.349Z,79.41
2023-02-02T12:34:49.963Z,79.44
2023-02-02T12:37:31.239Z,79.48
2023-02-02T12:40:17.340Z,79.55
2023-02-02T12:43:05.341Z,79.46
2023-02-02T12:45:49.252Z,79.58
2023-02-02T12:48:43.432Z,79.58
2023-02-02T12:51:25.987Z,79.64
2023-02-02T12:54:32.856Z,79.59
2023-02-02T12:57:12.410Z,79.49
2023-02-02T13:00:03.501Z,79.54
2023-02-02T13:02:43.593Z,79.59
2023-02-02T13:05:36.581Z,79.60
2023-02-02T13:08:09.419Z,79.62
2023-02-02T13:10:42.688Z,79.61
2023-02-02T13:13:16.876Z,79.57
2023-02-02T13:15:49.599Z,79.46
2023-02-02T13:18:26.017Z,79.41
2023-02-02T13:21:01.739Z,79.62
2023-02-02T13:23:36.694Z,79.58
2023-02-02T13:26:12.897Z,79.56
2023-02-02T13:28:45.394Z,79.54
2023-02-02T13:31:25.024Z,79.50
2023-02-02T13:34:07.063Z,79.51
2023-02-02T13:36:43.510Z,79.70
2023-02-02T13:39:20.093Z,79.51
2023-02-02T13:41:56.477Z,79.62
2023-02-02T13:44:34.009Z,79.62
2023-02-02T13:47:09.530Z,79.70
2023-02-02T13:49:43.626Z,79.78
2023-02-02T13:52:34.831Z,79.79
2023-02-02T13:55:23.907Z,79.89
2023-02-02T13:58:22.174Z,79.78
2023-02-02T14:00:54.504Z,79.74
2023-02-02T14:03:38.291Z,79.85
2023-02-02T14:06:14.153Z,79.80
2023-02-02T14:08:51.390Z,79.61
2023-02-02T14:11:29.347Z,79.57
2023-02-02T14:14:25.916Z,79.59
2023-02-02T14:16:56.158Z,79.63
2023-02-02T14:19:56.337Z,79.70
2023-02-02T14:22:44.446Z,79.62
2023-02-02T14:26:04.029Z,79.60
2023-02-02T14:28:48.683Z,79.59
2023-02-02T14:31:35.620Z,79.52
2023-02-02T14:34:30.890Z,79.65
2023-02-02T14:37:20.312Z,79.72
2023-02-02T14:39:58.059Z,79.60
2023-02-02T14:43:09.403Z,79.50
2023-02-02T14:45:40.526Z,79.44
2023-02-02T14:48:14.414Z,79.34
2023-02-02T14:50:49.335Z,79.46
2023-02-02T14:53:26.027Z,79.47
2023-02-02T14:56:00.823Z,79.43
2023-02-02T14:58:34.694Z,79.57
2023-02-02T15:01:12.666Z,79.44
2023-02-02T15:03:49.564Z,79.41
2023-02-02T15:06:32.323Z,79.38
2023-02-02T15:09:37.990Z,79.49
2023-02-02T15:12:29.175Z,79.37
2023-02-02T15:15:08.219Z,79.37
2023-02-02T15:18:00.717Z,79.43
2023-02-02T15:20:34.312Z,79.45
2023-02-02T15:23:09.718Z,79.41
2023-02-02T15:25:45.619Z,79.52
2023-02-02T15:28:23.962Z,79.47
2023-02-02T15:30:59.341Z,79.42
2023-02-02T15:33:32.048Z,79.38
2023-02-02T15:36:06.236Z,79.40
2023-02-02T15:38:38.007Z,79.44
2023-02-02T15:41:16.369Z,79.53
2023-02-02T15:43:47.498Z,79.61
2023-02-02T15:46:23.939Z,79.51
2023-02-02T15:49:33.638Z,79.54
2023-02-02T15:52:14.663Z,79.48
2023-02-02T15:54:52.685Z,79.42
2023-02-02T15:57:33.890Z,79.36
2023-02-02T16:00:24.158Z,79.36
2023-02-02T16:03:00.218Z,79.38
2023-02-02T16:05:44.416Z,79.38
2023-02-02T16:08:24.609Z,79.31
2023-02-02T16:11:03.755Z,79.29
2023-02-02T16:13:33.279Z,79.17
2023-02-02T16:16:05.860Z,79.24
2023-02-02T16:18:37.415Z,79.08
2023-02-02T16:21:17.514Z,79.17
2023-02-02T16:23:50.151Z,79.20
2023-02-02T16:26:22.796Z,79.24
2023-02-02T16:28:52.356Z,79.30
2023-02-02T16:31:22.737Z,79.28
2023-02-02T16:33:51.520Z,79.33
2023-02-02T16:36:25.360Z,79.30
2023-02-02T16:38:57.369Z,79.39
2023-02-02T16:41:32.428Z,79.26
2023-02-02T16:44:37.742Z,79.22
2023-02-02T16:47:08.730Z,79.14
2023-02-02T16:49:39.164Z,79.17
2023-02-02T16:52:12.066Z,79.21
2023-02-02T16:54:44.917Z,79.25
2023-02-02T16:57:19.880Z,79.29
2023-02-02T16:59:52.179Z,79.36
2023-02-02T17:02:30.758Z,79.27
2023-02-02T17:05:06.622Z,79.29
2023-02-02T17:07:37.842Z,79.23
2023-02-02T17:10:24.650Z,79.33
2023-02-02T17:12:53.954Z,79.37
2023-02-02T17:15:34.669Z,79.27
2023-02-02T17:18:05.148Z,79.24
2023-02-02T17:20:34.377Z,79.31
2023-02-02T17:23:09.171Z,79.44
2023-02-02T17:25:43.062Z,79.28
2023-02-02T17:28:17.748Z,79.32
2023-02-02T17:30:52.044Z,79.40
2023-02-02T17:33:21.176Z,79.39
2023-02-02T17:35:55.267Z,79.34
2023-02-02T17:38:28.249Z,79.28
2023-02-02T17:41:01.616Z,79.31
2023-02-02T17:43:34.916Z,79.36
2023-02-02T17:46:05.622Z,79.34
2023-02-02T17:48:37.135Z,79.30
2023-02-02T17:51:13.103Z,79.27
2023-02-02T17:53:42.355Z,79.23
2023-02-02T17:56:11.370Z,79.38
2023-02-02T17:58:42.518Z,79.25
2023-02-02T18:01:13.452Z,79.32
2023-02-02T18:03:46.059Z,79.37
2023-02-02T18:06:17.846Z,79.34
2023-02-02T18:08:47.726Z,79.30
2023-02-02T18:11:22.604Z,79.38
2023-02-02T18:13:54.835Z,79.27
2023-02-02T18:16:26.657Z,79.38
2023-02-02T18:18:57.841Z,79.42
2023-02-02T18:21:29.445Z,79.39
2023-02-02T18:23:59.363Z,79.32
2023-02-02T18:26:31.316Z,79.31
2023-02-02T18:29:05.141Z,79.29
2023-02-02T18:31:43.787Z,79.20
2023-02-02T18:34:15.420Z,79.35
2023-02-02T18:36:46.246Z,79.34
2023-02-02T18:39:15.617Z,79.25
2023-02-02T18:41:45.393Z,79.31
2023-02-02T18:44:17.195Z,79.26
2023-02-02T18:46:47.688Z,79.35
2023-02-02T18:49:17.981Z,79.14
2023-02-02T18:51:51.934Z,79.18
2023-02-02T18:54:25.987Z,79.20
2023-02-02T18:56:58.406Z,79.24
2023-02-02T18:59:32.583Z,79.37
2023-02-02T19:02:03.175Z,79.23
2023-02-02T19:04:32.719Z,79.33
2023-02-02T19:07:22.135Z,79.31
2023-02-02T19:09:52.532Z,79.32
2023-02-02T19:12:31.948Z,79.36
2023-02-02T19:15:01.867Z,79.40
2023-02-02T19:17:31.642Z,79.38
2023-02-02T19:20:09.434Z,79.29
2023-02-02T19:22:39.147Z,79.21
2023-02-02T19:25:13.037Z,79.25
2023-02-02T19:27:42.177Z,79.29
2023-02-02T19:30:19.292Z,79.27
2023-02-02T19:32:48.641Z,79.29
2023-02-02T19:35:20.850Z,79.36
2023-02-02T19:37:55.287Z,79.30
2023-02-02T19:40:26.385Z,79.33
2023-02-02T19:43:04.484Z,79.25
2023-02-02T19:45:35.172Z,79.31
2023-02-02T19:48:15.444Z,79.34
2023-02-02T19:50:45.359Z,79.33
2023-02-02T19:53:19.309Z,79.37
2023-02-02T19:55:49.489Z,79.36
2023-02-02T19:58:20.835Z,79.25
2023-02-02T20:00:53.065Z,79.17
2023-02-02T20:03:26.087Z,79.16
2023-02-02T20:05:58.091Z,79.12
2023-02-02T20:08:33.482Z,79.08
2023-02-02T20:11:19.169Z,79.15
2023-02-02T20:13:50.025Z,79.10
2023-02-02T20:16:21.800Z,79.10
2023-02-02T20:18:53.825Z,79.11
2023-02-02T20:21:34.413Z,79.11
2023-02-02T20:24:04.298Z,79.18
2023-02-02T20:26:36.722Z,79.11
2023-02-02T20:29:16.943Z,79.01
2023-02-02T20:31:48.342Z,79.02
2023-02-02T20:34:25.513Z,79.12
2023-02-02T20:36:57.880Z,78.96
2023-02-02T20:39:33.045Z,79.02
2023-02-02T20:42:03.063Z,79.10
2023-02-02T20:44:35.100Z,79.17
2023-02-02T20:47:04.830Z,79.08
2023-02-02T20:49:38.233Z,79.09
2023-02-02T20:52:10.893Z,79.04
2023-02-02T20:54:43.512Z,79.03
2023-02-02T20:57:13.529Z,78.99
2023-02-02T20:59:43.820Z,78.92
2023-02-02T21:02:18.609Z,78.86
2023-02-02T21:04:49.045Z,79.02
2023-02-02T21:07:21.332Z,79.02
2023-02-02T21:09:51.083Z,78.92
2023-02-02T21:12:23.899Z,78.88
2023-02-02T21:14:53.337Z,78.98
2023-02-02T21:17:22.219Z,78.92
2023-02-02T21:19:51.032Z,78.84
2023-02-02T21:22:20.095Z,78.89
2023-02-02T21:24:49.291Z,78.92
2023-02-02T21:27:18.530Z,78.87
2023-02-02T21:29:48.519Z,78.99
2023-02-02T21:32:17.812Z,79.02
2023-02-02T21:34:46.458Z,78.85
2023-02-02T21:37:19.566Z,78.95
2023-02-02T21:39:50.761Z,79.04
2023-02-02T21:42:24.661Z,79.00
2023-02-02T21:44:57.037Z,79.07
2023-02-02T21:47:33.004Z,79.02
2023-02-02T21:50:16.728Z,79.09
2023-02-02T21:52:46.671Z,78.99
2023-02-02T21:55:34.079Z,79.14
2023-02-02T21:58:16.966Z,79.10
2023-02-02T22:00:49.392Z,79.04
2023-02-02T22:03:38.126Z,78.97
2023-02-02T22:06:23.454Z,79.02
2023-02-02T22:08:54.428Z,78.95
2023-02-02T22:11:30.720Z,78.96
2023-02-02T22:14:17.055Z,78.85
2023-02-02T22:16:49.758Z,78.82
2023-02-02T22:19:38.944Z,78.72
2023-02-02T22:22:16.153Z,78.93
2023-02-02T22:24:53.052Z,78.90
2023-02-02T22:27:24.658Z,78.90
2023-02-02T22:30:10.980Z,78.74
2023-02-02T22:32:39.625Z,78.82
2023-02-02T22:35:09.128Z,78.89
2023-02-02T22:37:38.010Z,78.92
2023-02-02T22:40:08.649Z,78.82
2023-02-02T22:42:37.435Z,78.90
2023-02-02T22:45:08.127Z,78.89
2023-02-02T22:47:36.855Z,79.00
2023-02-02T22:50:07.237Z,79.03
2023-02-02T22:52:35.987Z,79.10
2023-02-02T22:55:06.577Z,79.13
2023-02-02T22:57:36.610Z,79.18
2023-02-02T23:00:12.372Z,79.10
2023-02-02T23:02:41.916Z,79.14
2023-02-02T23:05:12.674Z,79.32
2023-02-02T23:07:43.554Z,79.27
2023-02-02T23:10:14.877Z,79.23
2023-02-02T23:12:45.067Z,79.28
2023-02-02T23:15:15.016Z,79.13
2023-02-02T23:17:43.775Z,79.19
2023-02-02T23:20:15.283Z,79.10
2023-02-02T23:22:43.927Z,79.00
2023-02-02T23:25:13.561Z,79.16
2023-02-02T23:27:43.120Z,79.12
2023-02-02T23:30:14.961Z,79.06
2023-02-02T23:32:46.122Z,79.11
2023-02-02T23:48:39.738Z,79.15
2023-02-02T23:51:09.050Z,79.15
2023-02-02T23:53:38.212Z,79.21
2023-02-02T23:56:07.886Z,79.05
2023-02-02T23:58:36.548Z,79.13
